Time;durP1;ratioP1;P1;durP2;ratioP2;P2;SDS_P1;SDS_P2;PMS_P1;PMS_P2;Temp;Humidity;BMP_temperature;BMP_pressure;BME280_temperature;BME280_humidity;BME280_pressure;Samples;Min_cycle;Max_cycle;Signal;HPM_P1;HPM_P2
2022/09/29 00:01:08;;;;;;;6.78;4.63;;;6.20;99.90;;;;;;5050364;28;20053;-64
2022/09/29 00:03:34;;;;;;;9.00;5.22;;;6.20;99.90;;;;;;5056883;28;20048;-64
2022/09/29 00:06:00;;;;;;;8.98;5.57;;;6.20;99.90;;;;;;5057364;28;20039;-64
2022/09/29 00:08:29;;;;;;;8.50;5.70;;;6.30;99.90;;;;;;5050193;28;20041;-64
2022/09/29 00:10:55;;;;;;;282.60;13.98;;;6.20;99.90;;;;;;5069679;28;20120;-64
2022/09/29 00:13:21;;;;;;;121.53;6.10;;;6.20;99.90;;;;;;5049645;28;20112;-64
2022/09/29 00:15:58;;;;;;;5.05;2.72;;;6.00;99.90;;;;;;5056301;28;20043;-64
2022/09/29 00:18:25;;;;;;;6.18;4.28;;;5.90;99.90;;;;;;5056205;28;20043;-64
2022/09/29 00:21:13;;;;;;;5.40;4.30;;;5.90;99.90;;;;;;5053216;28;20092;-64
2022/09/29 00:23:39;;;;;;;5.55;4.13;;;5.90;99.90;;;;;;5053254;28;20032;-63
2022/09/29 00:26:21;;;;;;;21.88;4.45;;;5.90;99.90;;;;;;5056628;28;20037;-64
2022/09/29 00:28:52;;;;;;;5.50;4.00;;;5.90;99.90;;;;;;5068238;28;20044;-63
2022/09/29 00:31:19;;;;;;;7.95;4.15;;;5.90;99.90;;;;;;5070115;28;20045;-63
2022/09/29 00:33:45;;;;;;;6.97;4.30;;;6.00;99.90;;;;;;5053801;28;20382;-64
2022/09/29 00:36:13;;;;;;;5.60;3.50;;;5.90;99.90;;;;;;5051510;28;20041;-63
2022/09/29 00:38:40;;;;;;;4.25;3.75;;;5.90;99.90;;;;;;5055666;28;20115;-64
2022/09/29 00:41:07;;;;;;;5.35;4.53;;;5.90;99.90;;;;;;5042769;28;20491;-64
2022/09/29 00:43:47;;;;;;;5.65;4.60;;;5.90;99.90;;;;;;5055522;28;20067;-65
2022/09/29 00:46:14;;;;;;;80.95;6.47;;;5.90;99.90;;;;;;5050903;28;20065;-64
2022/09/29 00:48:40;;;;;;;301.23;13.00;;;5.80;99.90;;;;;;5054648;28;20443;-64
2022/09/29 00:51:06;;;;;;;52.50;4.43;;;5.60;99.90;;;;;;5054261;28;20144;-64
2022/09/29 00:53:33;;;;;;;3.70;3.25;;;5.50;99.90;;;;;;5058854;28;20064;-64
2022/09/29 00:56:04;;;;;;;3.92;3.50;;;5.40;99.90;;;;;;5058273;28;20491;-64
2022/09/29 00:58:39;;;;;;;4.70;4.00;;;5.40;99.90;;;;;;5053714;28;20609;-64
2022/09/29 01:01:05;;;;;;;5.18;4.65;;;5.40;99.90;;;;;;5056855;28;20394;-64
2022/09/29 01:03:39;;;;;;;6.82;5.13;;;5.50;99.90;;;;;;5054876;28;20552;-64
2022/09/29 01:06:12;;;;;;;11.40;6.75;;;5.50;99.90;;;;;;5053320;28;20048;-63
2022/09/29 01:08:58;;;;;;;9.23;6.93;;;5.60;99.90;;;;;;5053584;28;20094;-63
2022/09/29 01:11:24;;;;;;;31.67;6.82;;;5.60;99.90;;;;;;5046627;28;20044;-63
2022/09/29 01:13:51;;;;;;;9.73;4.53;;;5.60;99.90;;;;;;5076823;28;20037;-64
2022/09/29 01:16:17;;;;;;;40.42;4.50;;;5.60;99.90;;;;;;5055705;28;20129;-63
2022/09/29 01:18:44;;;;;;;51.47;4.35;;;5.50;99.90;;;;;;5052332;28;20122;-64
2022/09/29 01:21:38;;;;;;;7.55;4.03;;;5.40;99.90;;;;;;5071371;28;20322;-63
2022/09/29 01:24:42;;;;;;;12.70;4.47;;;5.30;99.90;;;;;;5071930;28;20029;-64
2022/09/29 01:27:28;;;;;;;12.15;4.68;;;5.30;99.90;;;;;;5049565;28;20038;-64
2022/09/29 01:30:21;;;;;;;4.85;4.15;;;5.30;99.90;;;;;;5051295;28;20419;-64
2022/09/29 01:33:17;;;;;;;26.23;4.70;;;5.30;99.90;;;;;;5064330;28;20422;-64
2022/09/29 01:36:10;;;;;;;9.57;3.60;;;5.40;99.90;;;;;;5054309;28;20175;-64
2022/09/29 01:39:24;;;;;;;3.60;2.95;;;5.30;99.90;;;;;;5055736;28;20388;-64
2022/09/29 01:41:56;;;;;;;7.78;3.08;;;5.10;99.90;;;;;;5045991;28;20487;-64
2022/09/29 01:44:49;;;;;;;4.78;3.40;;;5.10;99.90;;;;;;5053202;28;20099;-64
2022/09/29 01:47:34;;;;;;;4.80;3.03;;;5.10;99.90;;;;;;5049824;28;20041;-64
2022/09/29 01:50:35;;;;;;;5.35;3.65;;;5.10;99.90;;;;;;5061231;28;20043;-64
2022/09/29 01:53:08;;;;;;;5.45;4.32;;;5.10;99.90;;;;;;5006510;28;20049;-64
2022/09/29 01:55:40;;;;;;;6.43;4.65;;;5.10;99.90;;;;;;5056764;28;20089;-64
2022/09/29 01:58:10;;;;;;;6.82;5.65;;;5.20;99.90;;;;;;5055798;28;20037;-64
2022/09/29 02:00:49;;;;;;;8.07;5.68;;;5.10;99.90;;;;;;5059279;28;20413;-64
2022/09/29 02:03:27;;;;;;;9.15;5.93;;;5.20;99.90;;;;;;5056700;28;20049;-64
2022/09/29 02:06:00;;;;;;;8.90;6.70;;;5.20;99.90;;;;;;5064677;28;20341;-65
2022/09/29 02:08:37;;;;;;;8.05;6.13;;;5.10;99.90;;;;;;5051689;28;20028;-64
2022/09/29 02:11:05;;;;;;;6.60;5.35;;;5.20;99.90;;;;;;5056211;28;20045;-65
2022/09/29 02:13:41;;;;;;;8.13;6.13;;;5.10;99.90;;;;;;5059092;28;20461;-64
2022/09/29 02:16:16;;;;;;;9.13;6.22;;;5.20;99.90;;;;;;5053100;28;20387;-65
2022/09/29 02:18:52;;;;;;;7.97;6.15;;;5.10;99.90;;;;;;5061346;28;20040;-65
2022/09/29 02:21:18;;;;;;;10.05;6.10;;;5.10;99.90;;;;;;5057982;28;20089;-65
2022/09/29 02:23:43;;;;;;;8.95;5.88;;;5.20;99.90;;;;;;5060659;28;20053;-64
2022/09/29 02:26:11;;;;;;;12.52;6.20;;;5.10;99.90;;;;;;5058292;28;20135;-65
2022/09/29 02:28:38;;;;;;;13.02;6.25;;;5.20;99.90;;;;;;5069480;28;20036;-65
2022/09/29 02:31:04;;;;;;;7.55;6.03;;;5.20;99.90;;;;;;5058677;28;20220;-65
2022/09/29 02:33:29;;;;;;;9.65;6.38;;;5.20;99.90;;;;;;5056263;28;20287;-65
2022/09/29 02:36:20;;;;;;;10.43;6.32;;;5.10;99.90;;;;;;5035828;28;20053;-65
2022/09/29 02:38:59;;;;;;;87.13;7.68;;;5.20;99.90;;;;;;5070211;28;20048;-65
2022/09/29 02:41:43;;;;;;;14.73;5.00;;;5.10;99.90;;;;;;5053800;28;20107;-66
2022/09/29 02:44:19;;;;;;;5.32;4.60;;;5.10;99.90;;;;;;5064476;28;20029;-66
2022/09/29 02:47:03;;;;;;;15.52;6.93;;;5.10;99.90;;;;;;5054089;28;20044;-65
2022/09/29 02:49:39;;;;;;;7.82;6.25;;;5.10;99.90;;;;;;5057161;28;20072;-65
2022/09/29 02:52:49;;;;;;;7.80;6.35;;;5.00;99.90;;;;;;5056537;28;20521;-65
2022/09/29 02:55:24;;;;;;;11.65;6.63;;;5.00;99.90;;;;;;5038429;28;20057;-66
2022/09/29 02:57:57;;;;;;;96.50;9.02;;;4.90;99.90;;;;;;5055647;28;20084;-66
2022/09/29 03:00:25;;;;;;;52.28;6.07;;;4.90;99.90;;;;;;5052510;28;20049;-65
2022/09/29 03:02:50;;;;;;;12.15;4.90;;;4.90;99.90;;;;;;5051027;28;20131;-66
2022/09/29 03:05:19;;;;;;;7.68;5.65;;;4.70;99.90;;;;;;5055295;28;20124;-66
2022/09/29 03:07:45;;;;;;;9.65;7.20;;;4.70;99.90;;;;;;5068528;28;20036;-66
2022/09/29 03:10:12;;;;;;;7.78;6.63;;;4.70;99.90;;;;;;5055676;28;20051;-66
2022/09/29 03:12:37;;;;;;;8.65;7.03;;;4.80;99.90;;;;;;5065877;28;20045;-66
2022/09/29 03:15:05;;;;;;;11.43;8.00;;;4.80;99.90;;;;;;5070907;28;20055;-66
2022/09/29 03:17:31;;;;;;;10.63;7.78;;;4.80;99.90;;;;;;5051097;28;20054;-66
2022/09/29 03:19:57;;;;;;;12.68;8.35;;;4.80;99.90;;;;;;5071617;28;20385;-66
2022/09/29 03:22:23;;;;;;;14.40;8.23;;;4.90;99.90;;;;;;5060043;28;20033;-66
2022/09/29 03:24:48;;;;;;;17.75;8.93;;;4.90;99.90;;;;;;5057263;28;20103;-66
2022/09/29 03:27:14;;;;;;;17.23;8.70;;;4.90;99.90;;;;;;5055337;28;20387;-66
2022/09/29 03:29:40;;;;;;;18.45;8.93;;;4.90;99.90;;;;;;5051473;28;20036;-66
2022/09/29 03:32:06;;;;;;;12.52;8.70;;;4.90;99.90;;;;;;5054106;28;20056;-66
2022/09/29 03:34:32;;;;;;;22.17;8.68;;;4.90;99.90;;;;;;5056780;28;20135;-66
2022/09/29 03:36:58;;;;;;;13.90;7.75;;;4.90;99.90;;;;;;5051348;28;20048;-66
2022/09/29 03:39:24;;;;;;;8.55;6.07;;;4.90;99.90;;;;;;5056518;28;20037;-66
2022/09/29 03:41:50;;;;;;;8.77;6.45;;;4.90;99.90;;;;;;5068696;28;20479;-66
2022/09/29 03:44:16;;;;;;;9.05;7.18;;;4.80;99.90;;;;;;5055495;28;20038;-66
2022/09/29 03:46:42;;;;;;;13.23;8.00;;;4.70;99.90;;;;;;5072913;28;20041;-66
2022/09/29 03:49:11;;;;;;;12.27;8.70;;;4.70;99.90;;;;;;5053498;28;20389;-66
2022/09/29 03:51:37;;;;;;;12.52;8.57;;;4.60;99.90;;;;;;5054826;28;20047;-66
2022/09/29 03:54:03;;;;;;;10.98;8.02;;;4.60;99.90;;;;;;5074675;28;20515;-66
2022/09/29 03:56:29;;;;;;;9.75;7.22;;;4.50;99.90;;;;;;5052279;28;20059;-66
2022/09/29 03:58:54;;;;;;;8.60;7.10;;;4.60;99.90;;;;;;5054084;28;20075;-66
2022/09/29 04:01:20;;;;;;;11.88;7.82;;;4.60;99.90;;;;;;5044644;28;20076;-66
2022/09/29 04:03:47;;;;;;;17.90;9.57;;;4.50;99.90;;;;;;5052160;28;20132;-66
2022/09/29 04:06:13;;;;;;;17.30;9.68;;;4.50;99.90;;;;;;5054380;28;20579;-66
2022/09/29 04:08:39;;;;;;;20.42;10.07;;;4.50;99.90;;;;;;5055611;28;20119;-66
2022/09/29 04:11:05;;;;;;;19.48;9.73;;;4.50;99.90;;;;;;5048275;28;20391;-66
2022/09/29 04:13:31;;;;;;;13.30;8.35;;;4.50;99.90;;;;;;5052130;28;20085;-66
2022/09/29 04:15:59;;;;;;;12.88;8.70;;;4.60;99.90;;;;;;5048870;28;20070;-66
2022/09/29 04:18:24;;;;;;;12.98;9.70;;;4.50;99.90;;;;;;5052138;28;20802;-66
2022/09/29 04:20:50;;;;;;;18.00;9.85;;;4.50;99.90;;;;;;5048015;28;20029;-65
2022/09/29 04:23:16;;;;;;;15.95;9.95;;;4.50;99.90;;;;;;5047638;28;21394;-66
2022/09/29 04:25:44;;;;;;;13.63;9.70;;;4.40;99.90;;;;;;5051956;28;20039;-65
2022/09/29 04:28:09;;;;;;;12.07;9.43;;;4.50;99.90;;;;;;5051843;28;20044;-65
2022/09/29 04:30:35;;;;;;;13.73;9.60;;;4.40;99.90;;;;;;5056414;28;20487;-66
2022/09/29 04:33:01;;;;;;;13.02;9.98;;;4.40;99.90;;;;;;5046311;28;20167;-65
2022/09/29 04:35:26;;;;;;;15.18;9.98;;;4.40;99.90;;;;;;5051200;28;20044;-65
2022/09/29 04:37:56;;;;;;;17.98;10.93;;;4.40;99.90;;;;;;5064962;28;20044;-65
2022/09/29 04:40:22;;;;;;;22.65;11.73;;;4.40;99.90;;;;;;5046735;28;20056;-65
2022/09/29 04:42:48;;;;;;;18.52;10.98;;;4.40;99.90;;;;;;5050536;28;20041;-65
2022/09/29 04:45:14;;;;;;;24.23;11.63;;;4.40;99.90;;;;;;5049262;28;20041;-65
2022/09/29 04:47:39;;;;;;;29.48;12.98;;;4.40;99.90;;;;;;5049873;28;20415;-66
2022/09/29 04:50:06;;;;;;;26.98;12.38;;;4.30;99.90;;;;;;5048664;28;20222;-65
2022/09/29 04:52:31;;;;;;;41.38;12.23;;;4.40;99.90;;;;;;5050996;28;20108;-65
2022/09/29 04:54:57;;;;;;;38.35;13.73;;;4.40;99.90;;;;;;5071257;28;20048;-65
2022/09/29 04:57:22;;;;;;;38.53;14.32;;;4.30;99.90;;;;;;5057290;28;20178;-65
2022/09/29 04:59:50;;;;;;;56.17;12.25;;;4.30;99.90;;;;;;5056412;28;20047;-65
2022/09/29 05:02:17;;;;;;;499.30;26.50;;;4.20;99.90;;;;;;5063989;28;20080;-65
2022/09/29 05:04:43;;;;;;;65.88;9.82;;;4.20;99.90;;;;;;5046085;28;20037;-65
2022/09/29 05:07:09;;;;;;;138.68;12.10;;;3.90;99.90;;;;;;5043854;28;20041;-65
2022/09/29 05:09:35;;;;;;;107.78;11.63;;;3.80;99.90;;;;;;5048409;28;20539;-65
2022/09/29 05:12:01;;;;;;;28.15;9.95;;;3.70;99.90;;;;;;5052018;28;20044;-65
2022/09/29 05:14:27;;;;;;;20.05;9.05;;;3.60;99.90;;;;;;5055479;28;20036;-65
2022/09/29 05:16:56;;;;;;;20.33;9.57;;;3.60;99.90;;;;;;5055708;28;20056;-65
2022/09/29 05:19:22;;;;;;;32.42;11.30;;;3.60;99.90;;;;;;5054487;28;20037;-64
2022/09/29 05:21:48;;;;;;;15.77;10.13;;;3.60;99.90;;;;;;5043747;28;20510;-65
2022/09/29 05:24:13;;;;;;;16.92;9.55;;;3.60;99.90;;;;;;5051721;28;20041;-65
2022/09/29 05:26:39;;;;;;;29.70;12.25;;;3.70;99.90;;;;;;5054380;28;20067;-65
2022/09/29 05:29:05;;;;;;;23.45;12.07;;;3.70;99.90;;;;;;5053695;28;20041;-65
2022/09/29 05:31:30;;;;;;;33.92;12.68;;;3.70;99.90;;;;;;5054409;28;20060;-65
2022/09/29 05:33:56;;;;;;;37.88;12.80;;;3.70;99.90;;;;;;5052347;28;20136;-65
2022/09/29 05:36:22;;;;;;;29.70;13.45;;;3.70;99.90;;;;;;5049916;28;20130;-65
2022/09/29 05:38:49;;;;;;;23.50;12.23;;;3.80;99.90;;;;;;5051179;28;20077;-65
2022/09/29 05:41:21;;;;;;;35.97;13.43;;;3.90;99.90;;;;;;5052183;28;20081;-65
2022/09/29 05:43:48;;;;;;;27.95;13.82;;;3.80;99.90;;;;;;5050524;28;20058;-65
2022/09/29 05:46:15;;;;;;;33.28;12.95;;;3.80;99.90;;;;;;5046770;28;20476;-65
2022/09/29 05:48:42;;;;;;;26.08;13.10;;;3.80;99.90;;;;;;5053670;28;20118;-65
2022/09/29 05:51:13;;;;;;;20.15;12.23;;;3.80;99.90;;;;;;5050728;28;20479;-65
2022/09/29 05:53:40;;;;;;;25.30;13.90;;;3.90;99.90;;;;;;5074328;28;20074;-65
2022/09/29 05:56:12;;;;;;;19.45;13.35;;;3.90;99.90;;;;;;5056041;28;20037;-65
2022/09/29 05:58:38;;;;;;;19.75;12.60;;;3.90;99.90;;;;;;5056394;28;20064;-65
2022/09/29 06:01:06;;;;;;;23.27;13.63;;;3.90;99.90;;;;;;5056509;28;20067;-65
2022/09/29 06:03:34;;;;;;;20.48;13.30;;;3.90;99.90;;;;;;5041012;28;20444;-65
2022/09/29 06:06:07;;;;;;;22.60;13.45;;;3.90;99.90;;;;;;5050842;28;20139;-65
2022/09/29 06:08:34;;;;;;;19.33;13.07;;;3.90;99.90;;;;;;5051651;28;20046;-64
2022/09/29 06:11:08;;;;;;;30.00;15.43;;;3.90;99.90;;;;;;5064486;28;20040;-65
2022/09/29 06:13:39;;;;;;;23.58;14.05;;;3.90;99.90;;;;;;5067385;28;20614;-65
2022/09/29 06:16:05;;;;;;;24.88;14.80;;;4.00;99.90;;;;;;5061908;28;20037;-65
2022/09/29 06:18:30;;;;;;;24.23;13.98;;;3.90;99.90;;;;;;5059197;28;20037;-65
2022/09/29 06:21:23;;;;;;;19.00;12.48;;;4.10;99.90;;;;;;5058758;28;20033;-65
2022/09/29 06:23:50;;;;;;;17.15;12.40;;;4.10;99.90;;;;;;5049995;28;20087;-65
2022/09/29 06:26:17;;;;;;;20.48;13.18;;;4.10;99.90;;;;;;5057525;28;20037;-65
2022/09/29 06:28:43;;;;;;;16.38;11.65;;;4.10;99.90;;;;;;5055173;28;20033;-65
2022/09/29 06:31:14;;;;;;;28.23;13.57;;;4.20;99.90;;;;;;5060614;28;20044;-65
2022/09/29 06:33:42;;;;;;;32.97;12.25;;;4.30;99.90;;;;;;5074595;28;20108;-65
2022/09/29 06:38:59;;;;;;;31.10;13.57;;;4.30;99.90;;;;;;5050508;28;21743;-65
2022/09/29 06:41:26;;;;;;;34.22;13.55;;;4.30;99.90;;;;;;5071447;28;20067;-65
2022/09/29 06:43:51;;;;;;;39.80;14.63;;;4.40;99.90;;;;;;5060064;28;20041;-65
2022/09/29 06:46:17;;;;;;;42.17;15.20;;;4.40;99.90;;;;;;5059362;28;20042;-65
2022/09/29 06:48:44;;;;;;;45.97;14.38;;;4.40;99.90;;;;;;5056270;28;20121;-65
2022/09/29 06:51:09;;;;;;;53.45;15.20;;;4.40;99.90;;;;;;5059894;28;20040;-65
2022/09/29 06:53:35;;;;;;;43.65;15.43;;;4.40;99.90;;;;;;5059215;28;20042;-66
2022/09/29 06:56:01;;;;;;;33.75;15.02;;;4.50;99.90;;;;;;5057185;28;20041;-65
2022/09/29 06:58:27;;;;;;;38.10;15.45;;;4.60;99.90;;;;;;5051129;28;20173;-66
2022/09/29 07:00:54;;;;;;;34.22;15.75;;;4.70;99.90;;;;;;5058901;28;20634;-66
2022/09/29 07:03:20;;;;;;;25.20;15.00;;;4.60;99.90;;;;;;5048229;28;20115;-66
2022/09/29 07:05:46;;;;;;;28.10;15.50;;;4.80;99.90;;;;;;5057506;28;20036;-66
2022/09/29 07:08:12;;;;;;;24.77;15.43;;;4.80;99.90;;;;;;5056360;28;20044;-66
2022/09/29 07:10:38;;;;;;;27.80;15.70;;;4.80;99.90;;;;;;5035977;28;20041;-66
2022/09/29 07:13:04;;;;;;;26.58;16.50;;;4.90;99.90;;;;;;5037065;28;20037;-66
2022/09/29 07:15:30;;;;;;;23.98;15.90;;;5.10;99.90;;;;;;5057795;28;20040;-66
2022/09/29 07:18:00;;;;;;;34.80;18.90;;;5.20;99.90;;;;;;5054672;28;20094;-66
2022/09/29 07:20:33;;;;;;;28.23;17.27;;;5.40;99.90;;;;;;5057236;28;20048;-65
2022/09/29 07:22:59;;;;;;;30.35;18.05;;;5.40;99.90;;;;;;5058775;28;20124;-65
2022/09/29 07:25:24;;;;;;;31.63;18.70;;;5.50;99.90;;;;;;5056660;28;20136;-65
2022/09/29 07:27:50;;;;;;;32.33;18.83;;;5.60;99.90;;;;;;5058352;28;20044;-65
2022/09/29 07:30:17;;;;;;;32.72;18.92;;;5.60;99.90;;;;;;5051104;28;20036;-64
2022/09/29 07:32:43;;;;;;;30.05;18.23;;;5.70;99.90;;;;;;5058563;28;20044;-64
2022/09/29 07:35:08;;;;;;;30.95;19.17;;;5.90;99.90;;;;;;5054015;28;20403;-63
2022/09/29 07:37:34;;;;;;;32.78;19.98;;;5.90;99.90;;;;;;5056600;28;20049;-63
2022/09/29 07:40:00;;;;;;;38.13;21.30;;;6.00;99.90;;;;;;5049394;28;20040;-63
2022/09/29 07:42:28;;;;;;;35.40;20.48;;;6.10;99.90;;;;;;5058999;28;20115;-63
2022/09/29 07:44:56;;;;;;;32.92;20.58;;;6.20;99.90;;;;;;5050668;28;20483;-63
2022/09/29 07:47:22;;;;;;;34.35;20.77;;;6.40;99.90;;;;;;5053637;28;20042;-64
2022/09/29 07:49:48;;;;;;;40.60;22.48;;;6.50;99.90;;;;;;5068901;28;20402;-64
2022/09/29 07:52:14;;;;;;;41.95;22.95;;;6.60;99.90;;;;;;5053215;28;20186;-64
2022/09/29 07:54:40;;;;;;;36.72;22.02;;;6.70;99.90;;;;;;5061557;28;20040;-64
2022/09/29 07:57:05;;;;;;;39.15;22.50;;;6.90;99.90;;;;;;5053771;28;20044;-65
2022/09/29 07:59:31;;;;;;;40.00;22.83;;;6.90;99.90;;;;;;5058492;28;20146;-65
2022/09/29 08:01:57;;;;;;;38.92;22.60;;;7.00;99.90;;;;;;5055362;28;20042;-65
2022/09/29 08:04:23;;;;;;;47.03;23.70;;;7.10;99.90;;;;;;5051611;28;20044;-65
2022/09/29 08:06:49;;;;;;;42.22;23.52;;;7.30;99.90;;;;;;5049751;28;20037;-65
2022/09/29 08:09:15;;;;;;;45.17;24.40;;;7.40;99.90;;;;;;5060721;28;20047;-66
2022/09/29 08:11:42;;;;;;;43.42;23.05;;;7.50;99.90;;;;;;5055843;28;20126;-65
2022/09/29 08:14:08;;;;;;;35.97;22.00;;;7.60;99.90;;;;;;5053961;28;20041;-66
2022/09/29 08:16:35;;;;;;;33.78;20.20;;;7.60;99.90;;;;;;5054749;28;20411;-66
2022/09/29 08:19:01;;;;;;;36.42;22.23;;;7.70;99.90;;;;;;5070897;28;20037;-67
2022/09/29 08:21:28;;;;;;;34.30;20.75;;;7.90;99.90;;;;;;5055194;28;20044;-67
2022/09/29 08:23:54;;;;;;;37.97;21.52;;;7.90;99.90;;;;;;5052899;28;20036;-67
2022/09/29 08:26:21;;;;;;;37.08;21.40;;;8.00;99.90;;;;;;5061399;28;20036;-67
2022/09/29 08:28:47;;;;;;;39.88;21.52;;;8.10;99.90;;;;;;5058200;28;20055;-67
2022/09/29 08:31:18;;;;;;;34.10;21.63;;;8.10;99.90;;;;;;5054155;28;20094;-68
2022/09/29 08:33:44;;;;;;;35.08;21.38;;;8.40;99.90;;;;;;5048657;28;20041;-68
2022/09/29 08:36:15;;;;;;;35.30;21.35;;;8.40;99.90;;;;;;5048575;28;20036;-69
2022/09/29 08:38:45;;;;;;;34.17;20.73;;;8.50;99.90;;;;;;5056654;28;20062;-68
2022/09/29 08:41:46;;;;;;;38.38;21.05;;;8.60;99.90;;;;;;5055896;28;20078;-69
2022/09/29 08:44:37;;;;;;;33.38;20.52;;;8.60;99.90;;;;;;5067738;28;20053;-68
2022/09/29 08:47:23;;;;;;;36.78;22.05;;;8.80;99.90;;;;;;5055411;28;20075;-68
2022/09/29 08:49:56;;;;;;;32.38;21.23;;;8.90;99.90;;;;;;5053581;28;20044;-68
2022/09/29 08:52:27;;;;;;;35.70;22.08;;;9.00;99.90;;;;;;5054492;28;20076;-68
2022/09/29 08:54:59;;;;;;;36.95;20.80;;;9.10;99.90;;;;;;5054209;28;20048;-68
2022/09/29 08:57:25;;;;;;;34.70;21.70;;;9.10;99.90;;;;;;5062098;28;20083;-67
2022/09/29 08:59:57;;;;;;;33.92;21.23;;;9.30;99.90;;;;;;5052045;28;20038;-67
2022/09/29 09:03:19;;;;;;;30.95;19.80;;;9.40;99.90;;;;;;5053302;28;20114;-67
2022/09/29 09:05:48;;;;;;;31.87;19.63;;;9.50;99.90;;;;;;4992097;28;20528;-67
2022/09/29 09:08:41;;;;;;;33.95;20.63;;;9.60;99.90;;;;;;4996108;28;20466;-66
2022/09/29 09:11:18;;;;;;;30.83;20.50;;;9.70;99.90;;;;;;5024690;28;20083;-66
2022/09/29 09:14:20;;;;;;;33.45;20.70;;;9.80;99.90;;;;;;5053423;28;20132;-66
2022/09/29 09:17:04;;;;;;;35.03;21.27;;;9.80;99.90;;;;;;5044334;28;20045;-66
2022/09/29 09:19:33;;;;;;;35.10;21.63;;;9.90;99.90;;;;;;5047941;28;20084;-66
2022/09/29 09:22:03;;;;;;;34.60;21.15;;;10.10;99.90;;;;;;5052183;28;20070;-66
2022/09/29 09:24:41;;;;;;;32.10;20.55;;;10.10;99.90;;;;;;5053391;28;20411;-65
2022/09/29 09:27:14;;;;;;;34.03;21.17;;;10.30;99.90;;;;;;5051044;28;20033;-65
2022/09/29 09:29:42;;;;;;;34.17;21.10;;;10.30;99.90;;;;;;5052343;28;20067;-65
2022/09/29 09:32:09;;;;;;;33.60;21.52;;;10.40;99.90;;;;;;5052310;28;20068;-66
2022/09/29 09:34:40;;;;;;;32.28;20.88;;;10.40;99.90;;;;;;5050709;28;20069;-66
2022/09/29 09:37:19;;;;;;;32.00;20.40;;;10.60;99.90;;;;;;5051894;28;20041;-66
2022/09/29 09:40:17;;;;;;;30.55;19.67;;;10.60;99.90;;;;;;5047691;28;20041;-65
2022/09/29 09:42:52;;;;;;;32.03;18.95;;;10.80;99.90;;;;;;5047157;28;20407;-65
2022/09/29 09:45:35;;;;;;;30.65;18.75;;;11.00;99.90;;;;;;5057522;28;20049;-66
2022/09/29 09:48:07;;;;;;;;;;;10.90;99.90;;;;;;5055117;28;20041;-66
2022/09/29 09:50:38;;;;;;;25.85;16.60;;;11.00;99.90;;;;;;5057347;28;20015;-66
2022/09/29 09:53:11;;;;;;;25.50;17.63;;;11.10;99.90;;;;;;5050254;28;20045;-66
2022/09/29 09:55:37;;;;;;;20.02;12.60;;;11.20;99.90;;;;;;5051454;28;20616;-66
2022/09/29 09:58:45;;;;;;;20.08;11.32;;;11.40;99.90;;;;;;5050213;28;20065;-66
2022/09/29 10:01:13;;;;;;;16.35;11.10;;;11.50;99.90;;;;;;5038585;28;20070;-66
2022/09/29 10:03:39;;;;;;;17.25;10.23;;;11.50;99.90;;;;;;5053007;28;20045;-66
2022/09/29 10:06:08;;;;;;;18.33;10.73;;;11.60;99.90;;;;;;5050755;28;20037;-66
2022/09/29 10:08:38;;;;;;;14.63;10.07;;;11.70;99.90;;;;;;5045891;28;20098;-66
2022/09/29 10:11:21;;;;;;;14.82;9.80;;;11.70;99.90;;;;;;5051024;28;20461;-66
2022/09/29 10:14:10;;;;;;;14.70;9.32;;;11.90;99.90;;;;;;5046809;28;20095;-66
2022/09/29 10:16:43;;;;;;;15.93;10.25;;;11.90;99.90;;;;;;5056920;28;20347;-66
2022/09/29 10:19:09;;;;;;;11.55;8.10;;;12.10;99.90;;;;;;5048967;28;20501;-67
2022/09/29 10:21:37;;;;;;;15.32;9.40;;;12.00;99.90;;;;;;5048454;28;20045;-66
2022/09/29 10:24:06;;;;;;;13.18;8.98;;;12.10;99.90;;;;;;5050546;28;20094;-67
2022/09/29 10:26:42;;;;;;;13.88;8.90;;;12.10;99.90;;;;;;5051170;28;20103;-66
2022/09/29 10:29:39;;;;;;;11.18;8.40;;;12.20;99.90;;;;;;5051268;28;20037;-66
2022/09/29 10:32:20;;;;;;;11.10;8.68;;;12.30;99.90;;;;;;5039940;28;20070;-66
2022/09/29 10:34:50;;;;;;;10.88;7.85;;;12.40;99.90;;;;;;5042167;28;20041;-66
2022/09/29 10:37:36;;;;;;;12.15;8.48;;;12.40;99.90;;;;;;5015823;28;20438;-66
2022/09/29 10:40:11;;;;;;;13.57;9.23;;;12.40;99.90;;;;;;5061024;28;20615;-66
2022/09/29 10:42:40;;;;;;;14.30;9.23;;;12.40;99.90;;;;;;5042024;28;20107;-67
2022/09/29 10:45:12;;;;;;;13.15;8.77;;;12.40;99.90;;;;;;5042168;28;20048;-66
2022/09/29 10:47:39;;;;;;;14.38;9.02;;;12.50;99.90;;;;;;5069275;28;20071;-67
2022/09/29 10:50:20;;;;;;;15.57;8.98;;;12.60;99.90;;;;;;5053459;28;20041;-67
2022/09/29 10:53:02;;;;;;;11.18;7.07;;;12.60;99.90;;;;;;5049294;28;20048;-67
2022/09/29 10:55:33;;;;;;;8.55;5.90;;;12.70;99.90;;;;;;5035475;28;20505;-68
2022/09/29 10:58:19;;;;;;;11.88;7.57;;;12.70;99.90;;;;;;5047925;28;20044;-67
2022/09/29 11:00:46;;;;;;;10.23;6.70;;;12.70;99.90;;;;;;5050345;28;20045;-68
2022/09/29 11:03:27;;;;;;;12.63;7.05;;;12.90;99.90;;;;;;5048443;28;20060;-67
2022/09/29 11:05:58;;;;;;;10.90;7.63;;;12.90;99.90;;;;;;5037694;28;20040;-67
2022/09/29 11:08:27;;;;;;;13.30;6.95;;;12.90;99.90;;;;;;5054719;28;20036;-67
2022/09/29 11:11:06;;;;;;;12.48;6.55;;;12.90;99.90;;;;;;5049205;28;20045;-68
2022/09/29 11:13:39;;;;;;;14.40;7.50;;;12.90;99.90;;;;;;5060154;28;20044;-67
2022/09/29 11:16:14;;;;;;;11.80;5.80;;;12.90;99.90;;;;;;5030127;28;20048;-68
2022/09/29 11:18:40;;;;;;;8.27;5.20;;;12.90;99.90;;;;;;5036821;28;20041;-67
2022/09/29 11:21:18;;;;;;;9.82;6.10;;;13.00;99.90;;;;;;5046792;28;20073;-69
2022/09/29 11:24:11;;;;;;;10.48;6.25;;;13.00;99.90;;;;;;5049649;28;20403;-68
2022/09/29 11:27:14;;;;;;;10.38;6.43;;;13.00;99.90;;;;;;5048964;28;20044;-69
2022/09/29 11:29:49;;;;;;;11.23;6.65;;;13.00;99.90;;;;;;5012757;28;20049;-68
2022/09/29 11:32:26;;;;;;;7.18;4.70;;;13.10;99.90;;;;;;5040902;28;20040;-67
2022/09/29 11:35:11;;;;;;;9.15;6.25;;;13.10;99.90;;;;;;5060289;28;20048;-67
2022/09/29 11:37:57;;;;;;;9.25;5.10;;;13.10;99.90;;;;;;5067903;28;20058;-67
2022/09/29 11:40:35;;;;;;;6.38;4.55;;;13.20;99.90;;;;;;5050988;28;20052;-67
2022/09/29 11:43:07;;;;;;;11.65;6.32;;;13.20;99.90;;;;;;5062901;28;20329;-68
2022/09/29 11:45:43;;;;;;;6.50;4.78;;;13.30;99.90;;;;;;5032094;28;20052;-69
2022/09/29 11:48:28;;;;;;;7.32;4.97;;;13.30;99.90;;;;;;5031310;28;20041;-67
2022/09/29 11:51:18;;;;;;;9.18;6.45;;;13.30;99.90;;;;;;5041922;28;20049;-66
2022/09/29 11:54:08;;;;;;;13.98;8.35;;;13.40;99.90;;;;;;5047400;28;20495;-67
2022/09/29 11:56:51;;;;;;;11.63;7.28;;;13.40;99.90;;;;;;5048699;28;20052;-68
2022/09/29 11:59:38;;;;;;;9.52;6.28;;;13.50;99.90;;;;;;5027842;28;20045;-67
2022/09/29 12:02:04;;;;;;;10.23;6.40;;;13.50;99.90;;;;;;5056444;28;20434;-68
2022/09/29 12:04:47;;;;;;;10.77;6.50;;;13.60;99.90;;;;;;5048788;28;20041;-66
2022/09/29 12:07:29;;;;;;;11.07;6.65;;;13.70;99.90;;;;;;5045920;28;20045;-67
2022/09/29 12:10:07;;;;;;;16.42;8.07;;;13.70;99.90;;;;;;5048647;28;20075;-67
2022/09/29 12:12:59;;;;;;;7.03;5.30;;;13.70;99.90;;;;;;5063613;28;20072;-68
2022/09/29 12:15:51;;;;;;;10.13;5.73;;;13.70;99.90;;;;;;5051950;28;20132;-68
2022/09/29 12:19:09;;;;;;;9.80;5.63;;;13.70;99.90;;;;;;5047132;28;20773;-68
2022/09/29 12:21:41;;;;;;;11.77;7.20;;;13.70;99.90;;;;;;5053548;28;20045;-68
2022/09/29 12:24:16;;;;;;;12.23;7.32;;;13.80;99.90;;;;;;5045828;28;20383;-68
2022/09/29 12:26:45;;;;;;;11.45;7.35;;;13.90;99.90;;;;;;5049738;28;20037;-67
2022/09/29 12:29:35;;;;;;;12.18;7.60;;;13.90;99.90;;;;;;5045514;28;20060;-67
2022/09/29 12:32:17;;;;;;;11.88;7.85;;;14.00;99.90;;;;;;5045632;28;20053;-66
2022/09/29 12:34:58;;;;;;;13.32;7.15;;;14.10;99.90;;;;;;5061126;28;20075;-67
2022/09/29 12:37:29;;;;;;;11.77;7.15;;;14.10;99.90;;;;;;5045150;28;20076;-69
2022/09/29 12:40:01;;;;;;;11.98;7.35;;;14.10;99.90;;;;;;5049139;28;20495;-68
2022/09/29 12:42:45;;;;;;;11.05;7.18;;;14.00;99.90;;;;;;5046701;28;20088;-67
2022/09/29 12:45:59;;;;;;;11.10;7.05;;;14.00;99.90;;;;;;5060265;28;20047;-67
2022/09/29 12:49:01;;;;;;;12.85;7.30;;;14.00;99.90;;;;;;5045668;28;20037;-68
2022/09/29 12:51:45;;;;;;;11.38;7.53;;;14.10;99.90;;;;;;5063160;28;20049;-67
2022/09/29 12:54:23;;;;;;;16.25;9.32;;;14.20;99.90;;;;;;5047643;28;20080;-67
2022/09/29 12:57:01;;;;;;;13.50;8.18;;;14.20;99.90;;;;;;5030982;28;20080;-67
2022/09/29 12:59:44;;;;;;;13.90;8.07;;;14.30;99.90;;;;;;5028626;28;20052;-67
2022/09/29 13:02:32;;;;;;;11.48;7.18;;;14.30;99.90;;;;;;5045431;28;20087;-68
2022/09/29 13:05:28;;;;;;;13.20;8.13;;;14.30;99.90;;;;;;5045690;28;20068;-67
2022/09/29 13:08:16;;;;;;;11.98;6.32;;;14.40;99.90;;;;;;5029375;28;20049;-67
2022/09/29 13:11:14;;;;;;;10.02;6.43;;;14.40;99.90;;;;;;5056247;28;20041;-68
2022/09/29 13:14:06;;;;;;;10.30;5.93;;;14.40;99.90;;;;;;5043858;28;20047;-67
2022/09/29 13:16:58;;;;;;;9.68;6.15;;;14.50;99.90;;;;;;5048641;28;20044;-67